sensor_id;sensor_type;location;lat;lon;timestamp;P1;durP1;ratioP1;P2;durP2;ratioP2
7989;SDS011;4040;42.848;23.034;2022-09-03T00:02:39;13.00;;;7.80;;
7989;SDS011;4040;42.848;23.034;2022-09-03T00:08:32;9.13;;;7.45;;
7989;SDS011;4040;42.848;23.034;2022-09-03T00:14:27;9.87;;;7.23;;
7989;SDS011;4040;42.848;23.034;2022-09-03T00:20:24;10.57;;;8.10;;
7989;SDS011;4040;42.848;23.034;2022-09-03T00:26:19;10.43;;;8.15;;
7989;SDS011;4040;42.848;23.034;2022-09-03T00:32:38;10.47;;;8.17;;
7989;SDS011;4040;42.848;23.034;2022-09-03T00:38:33;10.23;;;7.97;;
7989;SDS011;4040;42.848;23.034;2022-09-03T00:44:37;10.98;;;8.73;;
7989;SDS011;4040;42.848;23.034;2022-09-03T00:50:44;12.13;;;8.53;;
7989;SDS011;4040;42.848;23.034;2022-09-03T00:56:47;11.68;;;9.68;;
7989;SDS011;4040;42.848;23.034;2022-09-03T01:02:56;11.05;;;9.00;;
7989;SDS011;4040;42.848;23.034;2022-09-03T01:08:59;12.33;;;8.27;;
7989;SDS011;4040;42.848;23.034;2022-09-03T01:15:00;10.20;;;8.57;;
7989;SDS011;4040;42.848;23.034;2022-09-03T01:20:58;12.90;;;8.75;;
7989;SDS011;4040;42.848;23.034;2022-09-03T01:27:16;12.15;;;9.63;;
7989;SDS011;4040;42.848;23.034;2022-09-03T01:33:18;12.75;;;9.15;;
7989;SDS011;4040;42.848;23.034;2022-09-03T01:39:16;12.27;;;9.68;;
7989;SDS011;4040;42.848;23.034;2022-09-03T01:45:17;12.30;;;9.32;;
7989;SDS011;4040;42.848;23.034;2022-09-03T01:51:19;13.48;;;9.45;;
7989;SDS011;4040;42.848;23.034;2022-09-03T02:03:22;13.50;;;10.93;;
7989;SDS011;4040;42.848;23.034;2022-09-03T02:09:14;13.35;;;10.38;;
7989;SDS011;4040;42.848;23.034;2022-09-03T02:15:05;13.45;;;10.40;;
7989;SDS011;4040;42.848;23.034;2022-09-03T02:20:58;15.10;;;10.65;;
7989;SDS011;4040;42.848;23.034;2022-09-03T02:26:49;14.10;;;10.02;;
7989;SDS011;4040;42.848;23.034;2022-09-03T02:32:39;13.30;;;9.88;;
7989;SDS011;4040;42.848;23.034;2022-09-03T02:38:28;10.77;;;8.40;;
7989;SDS011;4040;42.848;23.034;2022-09-03T02:44:19;12.23;;;8.98;;
7989;SDS011;4040;42.848;23.034;2022-09-03T02:50:13;13.35;;;8.55;;
7989;SDS011;4040;42.848;23.034;2022-09-03T02:56:02;12.25;;;9.02;;
7989;SDS011;4040;42.848;23.034;2022-09-03T03:01:53;13.43;;;8.77;;
7989;SDS011;4040;42.848;23.034;2022-09-03T03:07:42;19.50;;;12.93;;
7989;SDS011;4040;42.848;23.034;2022-09-03T03:13:30;15.65;;;9.35;;
7989;SDS011;4040;42.848;23.034;2022-09-03T03:19:21;13.55;;;9.48;;
7989;SDS011;4040;42.848;23.034;2022-09-03T03:25:09;11.88;;;9.30;;
7989;SDS011;4040;42.848;23.034;2022-09-03T03:30:58;11.77;;;8.48;;
7989;SDS011;4040;42.848;23.034;2022-09-03T03:36:54;14.87;;;9.87;;
7989;SDS011;4040;42.848;23.034;2022-09-03T03:42:43;13.50;;;10.00;;
7989;SDS011;4040;42.848;23.034;2022-09-03T03:48:32;12.87;;;9.97;;
7989;SDS011;4040;42.848;23.034;2022-09-03T03:54:23;12.00;;;9.20;;
7989;SDS011;4040;42.848;23.034;2022-09-03T04:00:12;16.23;;;9.47;;
7989;SDS011;4040;42.848;23.034;2022-09-03T04:10:06;12.95;;;7.50;;
7989;SDS011;4040;42.848;23.034;2022-09-03T04:15:59;8.77;;;5.63;;
7989;SDS011;4040;42.848;23.034;2022-09-03T04:21:49;8.40;;;4.13;;
7989;SDS011;4040;42.848;23.034;2022-09-03T04:27:39;4.18;;;2.63;;
7989;SDS011;4040;42.848;23.034;2022-09-03T04:33:28;3.67;;;2.77;;
7989;SDS011;4040;42.848;23.034;2022-09-03T04:39:17;3.60;;;2.70;;
7989;SDS011;4040;42.848;23.034;2022-09-03T04:45:07;4.43;;;3.07;;
7989;SDS011;4040;42.848;23.034;2022-09-03T04:51:00;5.43;;;2.93;;
7989;SDS011;4040;42.848;23.034;2022-09-03T04:56:51;2.97;;;2.60;;
7989;SDS011;4040;42.848;23.034;2022-09-03T05:02:41;4.23;;;2.67;;
7989;SDS011;4040;42.848;23.034;2022-09-03T05:12:58;4.07;;;2.77;;
7989;SDS011;4040;42.848;23.034;2022-09-03T05:18:50;3.50;;;2.70;;
7989;SDS011;4040;42.848;23.034;2022-09-03T05:24:39;3.80;;;2.80;;
7989;SDS011;4040;42.848;23.034;2022-09-03T05:30:28;3.33;;;2.65;;
7989;SDS011;4040;42.848;23.034;2022-09-03T05:36:19;3.60;;;2.58;;
7989;SDS011;4040;42.848;23.034;2022-09-03T05:42:09;5.05;;;3.15;;
7989;SDS011;4040;42.848;23.034;2022-09-03T05:48:01;3.40;;;2.58;;
7989;SDS011;4040;42.848;23.034;2022-09-03T05:53:51;3.40;;;3.10;;
7989;SDS011;4040;42.848;23.034;2022-09-03T05:59:41;3.83;;;2.92;;
7989;SDS011;4040;42.848;23.034;2022-09-03T06:05:29;3.95;;;2.92;;
7989;SDS011;4040;42.848;23.034;2022-09-03T06:15:41;2.92;;;2.58;;
7989;SDS011;4040;42.848;23.034;2022-09-03T06:21:30;3.17;;;2.55;;
7989;SDS011;4040;42.848;23.034;2022-09-03T06:27:19;2.70;;;2.28;;
7989;SDS011;4040;42.848;23.034;2022-09-03T06:33:09;3.13;;;2.50;;
7989;SDS011;4040;42.848;23.034;2022-09-03T06:38:58;3.05;;;2.33;;
7989;SDS011;4040;42.848;23.034;2022-09-03T06:44:47;3.10;;;2.20;;
7989;SDS011;4040;42.848;23.034;2022-09-03T06:50:38;2.13;;;1.83;;
7989;SDS011;4040;42.848;23.034;2022-09-03T06:56:26;2.47;;;2.22;;
7989;SDS011;4040;42.848;23.034;2022-09-03T07:02:15;3.17;;;2.55;;
7989;SDS011;4040;42.848;23.034;2022-09-03T07:08:06;2.33;;;1.77;;
7989;SDS011;4040;42.848;23.034;2022-09-03T07:18:17;2.85;;;2.45;;
7989;SDS011;4040;42.848;23.034;2022-09-03T07:24:08;2.33;;;2.03;;
7989;SDS011;4040;42.848;23.034;2022-09-03T07:29:57;2.65;;;2.33;;
7989;SDS011;4040;42.848;23.034;2022-09-03T07:35:46;2.33;;;1.90;;
7989;SDS011;4040;42.848;23.034;2022-09-03T07:41:37;2.60;;;2.00;;
7989;SDS011;4040;42.848;23.034;2022-09-03T07:47:31;2.28;;;2.08;;
7989;SDS011;4040;42.848;23.034;2022-09-03T07:53:20;3.00;;;2.30;;
7989;SDS011;4040;42.848;23.034;2022-09-03T07:59:10;2.33;;;1.85;;
7989;SDS011;4040;42.848;23.034;2022-09-03T08:04:58;2.20;;;2.00;;
7989;SDS011;4040;42.848;23.034;2022-09-03T08:10:47;2.42;;;1.92;;
7989;SDS011;4040;42.848;23.034;2022-09-03T08:20:59;2.60;;;2.22;;
7989;SDS011;4040;42.848;23.034;2022-09-03T08:26:48;2.63;;;2.10;;
7989;SDS011;4040;42.848;23.034;2022-09-03T08:32:37;2.53;;;1.98;;
7989;SDS011;4040;42.848;23.034;2022-09-03T08:38:27;2.80;;;2.25;;
7989;SDS011;4040;42.848;23.034;2022-09-03T08:44:19;2.60;;;2.10;;
7989;SDS011;4040;42.848;23.034;2022-09-03T08:50:15;3.83;;;2.40;;
7989;SDS011;4040;42.848;23.034;2022-09-03T08:56:13;3.28;;;2.10;;
7989;SDS011;4040;42.848;23.034;2022-09-03T09:02:13;2.85;;;2.35;;
7989;SDS011;4040;42.848;23.034;2022-09-03T09:08:13;2.25;;;2.05;;
7989;SDS011;4040;42.848;23.034;2022-09-03T09:14:11;1.75;;;1.60;;
7989;SDS011;4040;42.848;23.034;2022-09-03T09:24:32;2.10;;;1.90;;
7989;SDS011;4040;42.848;23.034;2022-09-03T09:30:25;2.55;;;2.25;;
7989;SDS011;4040;42.848;23.034;2022-09-03T09:36:15;2.53;;;2.33;;
7989;SDS011;4040;42.848;23.034;2022-09-03T09:42:06;3.75;;;3.35;;
7989;SDS011;4040;42.848;23.034;2022-09-03T09:47:58;2.42;;;1.95;;
7989;SDS011;4040;42.848;23.034;2022-09-03T09:53:47;2.67;;;2.47;;
7989;SDS011;4040;42.848;23.034;2022-09-03T09:59:47;2.47;;;2.00;;
7989;SDS011;4040;42.848;23.034;2022-09-03T10:16:38;2.00;;;1.90;;
7989;SDS011;4040;42.848;23.034;2022-09-03T10:26:57;2.20;;;2.00;;
7989;SDS011;4040;42.848;23.034;2022-09-03T10:33:00;2.03;;;1.90;;
7989;SDS011;4040;42.848;23.034;2022-09-03T10:39:00;1.92;;;1.75;;
7989;SDS011;4040;42.848;23.034;2022-09-03T10:44:57;2.17;;;1.98;;
7989;SDS011;4040;42.848;23.034;2022-09-03T10:50:51;2.55;;;2.33;;
7989;SDS011;4040;42.848;23.034;2022-09-03T10:56:44;2.92;;;2.10;;
7989;SDS011;4040;42.848;23.034;2022-09-03T11:03:03;2.10;;;1.90;;
7989;SDS011;4040;42.848;23.034;2022-09-03T11:09:04;2.67;;;2.17;;
7989;SDS011;4040;42.848;23.034;2022-09-03T11:15:04;2.85;;;2.25;;
7989;SDS011;4040;42.848;23.034;2022-09-03T11:21:01;2.95;;;2.10;;
7989;SDS011;4040;42.848;23.034;2022-09-03T11:26:54;2.63;;;2.22;;
7989;SDS011;4040;42.848;23.034;2022-09-03T11:32:54;2.75;;;2.17;;
7989;SDS011;4040;42.848;23.034;2022-09-03T11:38:47;2.90;;;2.10;;
7989;SDS011;4040;42.848;23.034;2022-09-03T11:44:36;2.70;;;2.20;;
7989;SDS011;4040;42.848;23.034;2022-09-03T11:50:27;2.50;;;1.95;;
7989;SDS011;4040;42.848;23.034;2022-09-03T11:56:18;2.00;;;1.80;;
7989;SDS011;4040;42.848;23.034;2022-09-03T12:02:21;2.20;;;1.88;;
7989;SDS011;4040;42.848;23.034;2022-09-03T12:14:36;2.00;;;1.55;;
7989;SDS011;4040;42.848;23.034;2022-09-03T12:20:34;2.15;;;1.60;;
7989;SDS011;4040;42.848;23.034;2022-09-03T12:26:23;2.40;;;1.77;;
7989;SDS011;4040;42.848;23.034;2022-09-03T12:32:14;1.85;;;1.63;;
7989;SDS011;4040;42.848;23.034;2022-09-03T12:38:04;1.50;;;1.38;;
7989;SDS011;4040;42.848;23.034;2022-09-03T12:43:53;2.25;;;1.70;;
7989;SDS011;4040;42.848;23.034;2022-09-03T12:49:45;1.92;;;1.30;;
7989;SDS011;4040;42.848;23.034;2022-09-03T12:55:36;1.30;;;1.20;;
7989;SDS011;4040;42.848;23.034;2022-09-03T13:01:27;1.23;;;1.00;;
7989;SDS011;4040;42.848;23.034;2022-09-03T13:07:22;1.10;;;1.00;;
7989;SDS011;4040;42.848;23.034;2022-09-03T13:13:18;1.40;;;1.10;;
7989;SDS011;4040;42.848;23.034;2022-09-03T13:19:12;2.10;;;1.33;;
7989;SDS011;4040;42.848;23.034;2022-09-03T13:25:22;1.60;;;1.45;;
7989;SDS011;4040;42.848;23.034;2022-09-03T13:31:25;1.65;;;1.42;;
7989;SDS011;4040;42.848;23.034;2022-09-03T13:37:21;1.70;;;1.25;;
7989;SDS011;4040;42.848;23.034;2022-09-03T13:43:20;1.60;;;1.50;;
7989;SDS011;4040;42.848;23.034;2022-09-03T13:49:17;1.83;;;1.50;;
7989;SDS011;4040;42.848;23.034;2022-09-03T13:55:34;1.63;;;1.40;;
7989;SDS011;4040;42.848;23.034;2022-09-03T14:01:37;1.88;;;1.67;;
7989;SDS011;4040;42.848;23.034;2022-09-03T14:07:39;1.92;;;1.42;;
7989;SDS011;4040;42.848;23.034;2022-09-03T14:13:41;1.48;;;1.38;;
7989;SDS011;4040;42.848;23.034;2022-09-03T14:19:40;1.58;;;1.33;;
7989;SDS011;4040;42.848;23.034;2022-09-03T14:29:16;2.10;;;1.63;;
7989;SDS011;4040;42.848;23.034;2022-09-03T14:35:17;2.22;;;1.77;;
7989;SDS011;4040;42.848;23.034;2022-09-03T14:41:25;2.35;;;1.85;;
7989;SDS011;4040;42.848;23.034;2022-09-03T14:47:25;1.88;;;1.60;;
7989;SDS011;4040;42.848;23.034;2022-09-03T14:53:29;2.50;;;1.83;;
7989;SDS011;4040;42.848;23.034;2022-09-03T14:59:38;2.90;;;1.70;;
7989;SDS011;4040;42.848;23.034;2022-09-03T15:05:46;1.73;;;1.42;;
7989;SDS011;4040;42.848;23.034;2022-09-03T15:08:41;1.90;;;1.50;;
7989;SDS011;4040;42.848;23.034;2022-09-03T15:14:38;1.27;;;1.17;;
7989;SDS011;4040;42.848;23.034;2022-09-03T15:20:39;2.75;;;2.13;;
7989;SDS011;4040;42.848;23.034;2022-09-03T15:30:09;4.55;;;2.95;;
7989;SDS011;4040;42.848;23.034;2022-09-03T15:36:03;3.35;;;2.30;;
7989;SDS011;4040;42.848;23.034;2022-09-03T15:42:00;2.47;;;1.90;;
7989;SDS011;4040;42.848;23.034;2022-09-03T15:48:00;2.55;;;1.98;;
7989;SDS011;4040;42.848;23.034;2022-09-03T15:53:57;2.70;;;1.98;;
7989;SDS011;4040;42.848;23.034;2022-09-03T15:59:50;5.35;;;2.63;;
7989;SDS011;4040;42.848;23.034;2022-09-03T16:05:49;4.15;;;2.50;;
7989;SDS011;4040;42.848;23.034;2022-09-03T16:11:47;3.20;;;2.60;;
7989;SDS011;4040;42.848;23.034;2022-09-03T16:17:47;5.28;;;2.00;;
7989;SDS011;4040;42.848;23.034;2022-09-03T16:23:45;3.88;;;2.60;;
7989;SDS011;4040;42.848;23.034;2022-09-03T16:34:03;2.63;;;1.90;;
7989;SDS011;4040;42.848;23.034;2022-09-03T16:40:02;2.92;;;2.05;;
7989;SDS011;4040;42.848;23.034;2022-09-03T16:46:04;11.98;;;2.42;;
7989;SDS011;4040;42.848;23.034;2022-09-03T16:52:06;3.40;;;2.47;;
7989;SDS011;4040;42.848;23.034;2022-09-03T16:58:09;4.00;;;3.03;;
7989;SDS011;4040;42.848;23.034;2022-09-03T17:04:14;3.90;;;2.50;;
7989;SDS011;4040;42.848;23.034;2022-09-03T17:10:30;4.97;;;2.10;;
7989;SDS011;4040;42.848;23.034;2022-09-03T17:16:36;3.28;;;2.42;;
7989;SDS011;4040;42.848;23.034;2022-09-03T17:22:37;13.32;;;3.55;;
7989;SDS011;4040;42.848;23.034;2022-09-03T17:28:38;8.73;;;5.43;;
7989;SDS011;4040;42.848;23.034;2022-09-03T17:34:44;6.18;;;4.50;;
7989;SDS011;4040;42.848;23.034;2022-09-03T17:40:45;8.18;;;5.65;;
7989;SDS011;4040;42.848;23.034;2022-09-03T17:52:02;13.43;;;6.93;;
7989;SDS011;4040;42.848;23.034;2022-09-03T17:57:56;10.45;;;5.93;;
7989;SDS011;4040;42.848;23.034;2022-09-03T18:03:53;10.03;;;5.50;;
7989;SDS011;4040;42.848;23.034;2022-09-03T18:09:47;7.15;;;4.93;;
7989;SDS011;4040;42.848;23.034;2022-09-03T18:50:45;8.60;;;4.55;;
7989;SDS011;4040;42.848;23.034;2022-09-03T19:08:59;6.53;;;4.53;;
7989;SDS011;4040;42.848;23.034;2022-09-03T19:15:12;6.28;;;4.90;;
7989;SDS011;4040;42.848;23.034;2022-09-03T19:21:27;6.40;;;4.57;;
7989;SDS011;4040;42.848;23.034;2022-09-03T19:27:38;6.15;;;3.85;;
7989;SDS011;4040;42.848;23.034;2022-09-03T19:33:53;6.80;;;4.43;;
7989;SDS011;4040;42.848;23.034;2022-09-03T19:40:13;8.30;;;4.83;;
7989;SDS011;4040;42.848;23.034;2022-09-03T19:46:32;7.40;;;4.90;;
7989;SDS011;4040;42.848;23.034;2022-09-03T19:52:46;7.03;;;5.03;;
7989;SDS011;4040;42.848;23.034;2022-09-03T19:58:59;6.77;;;4.10;;
7989;SDS011;4040;42.848;23.034;2022-09-03T20:05:11;5.97;;;4.10;;
7989;SDS011;4040;42.848;23.034;2022-09-03T20:11:21;6.77;;;4.67;;
7989;SDS011;4040;42.848;23.034;2022-09-03T20:17:16;6.17;;;4.63;;
7989;SDS011;4040;42.848;23.034;2022-09-03T20:23:16;7.40;;;4.47;;
7989;SDS011;4040;42.848;23.034;2022-09-03T20:29:12;6.17;;;4.10;;
7989;SDS011;4040;42.848;23.034;2022-09-03T20:35:16;6.07;;;4.07;;
7989;SDS011;4040;42.848;23.034;2022-09-03T20:41:16;8.83;;;4.97;;
7989;SDS011;4040;42.848;23.034;2022-09-03T20:47:13;5.93;;;4.13;;
7989;SDS011;4040;42.848;23.034;2022-09-03T20:53:30;7.73;;;4.93;;
7989;SDS011;4040;42.848;23.034;2022-09-03T20:59:35;6.33;;;4.00;;
7989;SDS011;4040;42.848;23.034;2022-09-03T21:05:35;8.67;;;4.90;;
7989;SDS011;4040;42.848;23.034;2022-09-03T21:11:34;8.93;;;4.60;;
7989;SDS011;4040;42.848;23.034;2022-09-03T21:17:33;8.43;;;4.07;;
7989;SDS011;4040;42.848;23.034;2022-09-03T21:23:33;6.83;;;4.83;;
7989;SDS011;4040;42.848;23.034;2022-09-03T21:39:02;6.77;;;4.10;;
7989;SDS011;4040;42.848;23.034;2022-09-03T21:44:57;7.20;;;4.20;;
7989;SDS011;4040;42.848;23.034;2022-09-03T21:50:54;5.67;;;3.70;;
7989;SDS011;4040;42.848;23.034;2022-09-03T21:56:48;7.33;;;4.23;;
7989;SDS011;4040;42.848;23.034;2022-09-03T22:08:41;6.70;;;4.00;;
7989;SDS011;4040;42.848;23.034;2022-09-03T22:14:37;5.63;;;3.70;;
7989;SDS011;4040;42.848;23.034;2022-09-03T22:20:30;7.93;;;4.43;;
7989;SDS011;4040;42.848;23.034;2022-09-03T22:26:22;6.23;;;4.30;;
7989;SDS011;4040;42.848;23.034;2022-09-03T22:32:22;8.67;;;5.23;;
7989;SDS011;4040;42.848;23.034;2022-09-03T22:44:51;9.53;;;5.10;;
7989;SDS011;4040;42.848;23.034;2022-09-03T22:50:55;7.87;;;4.70;;
7989;SDS011;4040;42.848;23.034;2022-09-03T22:56:46;7.07;;;4.60;;
7989;SDS011;4040;42.848;23.034;2022-09-03T23:02:37;8.40;;;5.67;;
7989;SDS011;4040;42.848;23.034;2022-09-03T23:08:28;6.37;;;4.20;;
7989;SDS011;4040;42.848;23.034;2022-09-03T23:14:22;7.47;;;4.43;;
7989;SDS011;4040;42.848;23.034;2022-09-03T23:20:17;9.57;;;5.43;;
7989;SDS011;4040;42.848;23.034;2022-09-03T23:26:10;7.40;;;4.90;;
7989;SDS011;4040;42.848;23.034;2022-09-03T23:32:03;8.30;;;4.73;;
7989;SDS011;4040;42.848;23.034;2022-09-03T23:38:04;6.97;;;4.57;;
7989;SDS011;4040;42.848;23.034;2022-09-03T23:44:03;7.23;;;4.70;;
7989;SDS011;4040;42.848;23.034;2022-09-03T23:50:06;9.20;;;5.17;;
7989;SDS011;4040;42.848;23.034;2022-09-03T23:56:26;6.90;;;4.17;;
